createdAt,value
2018-09-15T00:00:58.826Z,16.12
2018-09-15T00:03:27.659Z,16.12
2018-09-15T00:05:57.316Z,16.01
2018-09-15T00:08:26.011Z,15.99
2018-09-15T00:10:55.830Z,15.99
2018-09-15T00:13:24.542Z,16.01
2018-09-15T00:15:53.230Z,16.06
2018-09-15T00:18:21.888Z,16.09
2018-09-15T00:20:50.547Z,16.10
2018-09-15T00:23:19.289Z,16.07
2018-09-15T00:25:47.917Z,15.90
2018-09-15T00:28:16.600Z,15.83
2018-09-15T00:30:45.292Z,15.80
2018-09-15T00:33:13.936Z,15.79
2018-09-15T00:35:43.482Z,15.72
2018-09-15T00:38:12.188Z,15.64
2018-09-15T00:40:41.476Z,15.61
2018-09-15T00:43:10.189Z,15.55
2018-09-15T00:45:39.036Z,15.51
2018-09-15T00:48:08.089Z,15.43
2018-09-15T00:50:36.881Z,15.43
2018-09-15T00:53:05.546Z,15.28
2018-09-15T00:55:34.178Z,15.27
2018-09-15T00:58:02.859Z,15.22
2018-09-15T01:00:32.403Z,15.20
2018-09-15T01:03:01.170Z,15.17
2018-09-15T01:05:29.911Z,15.08
2018-09-15T01:07:58.601Z,15.06
2018-09-15T01:10:27.278Z,15.13
2018-09-15T01:12:56.011Z,15.13
2018-09-15T01:15:24.697Z,15.13
2018-09-15T01:17:53.364Z,15.12
2018-09-15T01:20:22.137Z,15.11
2018-09-15T01:22:51.607Z,15.11
2018-09-15T01:25:20.260Z,15.06
2018-09-15T01:27:48.938Z,15.06
2018-09-15T01:31:20.785Z,15.11
2018-09-15T01:33:49.524Z,15.12
2018-09-15T01:36:18.208Z,15.07
2018-09-15T01:38:46.932Z,15.13
2018-09-15T01:41:16.171Z,15.09
2018-09-15T01:43:44.920Z,15.06
2018-09-15T01:46:13.602Z,15.02
2018-09-15T01:48:42.281Z,15.03
2018-09-15T01:51:10.955Z,15.05
2018-09-15T01:53:39.688Z,15.01
2018-09-15T01:56:08.388Z,14.96
2018-09-15T01:58:37.061Z,14.93
2018-09-15T02:01:05.747Z,14.93
2018-09-15T02:03:34.420Z,14.91
2018-09-15T02:06:03.077Z,14.92
2018-09-15T02:08:31.802Z,14.93
2018-09-15T02:11:00.448Z,14.94
2018-09-15T02:13:29.136Z,14.92
2018-09-15T02:15:57.823Z,14.88
2018-09-15T02:18:26.461Z,14.88
2018-09-15T02:20:55.149Z,14.86
2018-09-15T02:23:23.811Z,14.82
2018-09-15T02:25:52.610Z,14.81
2018-09-15T02:28:21.261Z,14.82
2018-09-15T02:30:49.942Z,14.73
2018-09-15T02:33:18.601Z,14.70
2018-09-15T02:35:47.247Z,14.61
2018-09-15T02:38:15.984Z,14.51
2018-09-15T02:40:44.659Z,14.53
2018-09-15T02:43:13.321Z,14.50
2018-09-15T02:45:42.037Z,14.44
2018-09-15T02:48:10.717Z,14.46
2018-09-15T02:50:39.403Z,14.47
2018-09-15T02:53:08.051Z,14.49
2018-09-15T02:55:36.713Z,14.46
2018-09-15T02:58:05.479Z,14.46
2018-09-15T03:00:34.205Z,14.47
2018-09-15T03:03:02.883Z,14.44
2018-09-15T03:05:31.557Z,14.41
2018-09-15T03:08:00.267Z,14.38
2018-09-15T03:10:28.931Z,14.30
2018-09-15T03:12:57.606Z,14.30
2018-09-15T03:15:26.318Z,14.16
2018-09-15T03:17:54.995Z,14.17
2018-09-15T03:20:23.676Z,14.16
2018-09-15T03:22:53.033Z,14.22
2018-09-15T03:25:21.697Z,14.19
2018-09-15T03:27:50.372Z,14.18
2018-09-15T03:30:19.151Z,14.18
2018-09-15T03:32:47.820Z,14.16
2018-09-15T03:35:16.503Z,14.13
2018-09-15T03:37:45.231Z,14.14
2018-09-15T03:40:13.901Z,14.02
2018-09-15T03:42:42.570Z,13.95
2018-09-15T03:45:11.250Z,14.02
2018-09-15T03:47:40.019Z,13.87
2018-09-15T03:50:08.744Z,13.89
2018-09-15T03:52:37.413Z,13.90
2018-09-15T03:55:06.209Z,13.86
2018-09-15T04:00:02.598Z,13.93
2018-09-15T04:02:31.208Z,13.88
2018-09-15T04:05:00.141Z,13.85
2018-09-15T04:07:28.860Z,13.84
2018-09-15T04:09:57.555Z,13.75
2018-09-15T04:12:26.247Z,13.77
2018-09-15T04:14:54.963Z,13.73
2018-09-15T04:17:23.616Z,13.71
2018-09-15T04:19:52.290Z,13.67
2018-09-15T04:22:20.944Z,13.62
2018-09-15T04:24:49.637Z,13.66
2018-09-15T04:27:18.306Z,13.68
2018-09-15T04:29:47.004Z,13.60
2018-09-15T04:32:16.300Z,13.56
2018-09-15T04:34:44.970Z,13.55
2018-09-15T04:37:13.670Z,13.56
2018-09-15T04:39:42.356Z,13.54
2018-09-15T04:42:11.070Z,13.56
2018-09-15T04:44:39.785Z,13.57
2018-09-15T04:47:08.432Z,13.59
2018-09-15T04:49:37.170Z,13.62
2018-09-15T04:52:05.846Z,13.63
2018-09-15T04:54:34.583Z,13.65
2018-09-15T04:57:03.296Z,13.66
2018-09-15T04:59:32.012Z,13.70
2018-09-15T05:02:00.688Z,13.62
2018-09-15T05:04:29.354Z,13.67
2018-09-15T05:06:58.039Z,13.64
2018-09-15T05:09:26.686Z,13.67
2018-09-15T05:11:55.379Z,13.72
2018-09-15T05:14:24.024Z,13.70
2018-09-15T05:16:52.666Z,13.72
2018-09-15T05:19:21.328Z,13.79
2018-09-15T05:21:50.014Z,13.87
2018-09-15T05:24:18.752Z,14.00
2018-09-15T05:26:47.527Z,14.05
2018-09-15T05:29:16.255Z,14.13
2018-09-15T05:31:44.930Z,14.23
2018-09-15T05:34:13.625Z,14.25
2018-09-15T05:36:42.314Z,14.37
2018-09-15T05:39:12.899Z,14.48
2018-09-15T05:41:41.595Z,14.58
2018-09-15T05:44:10.534Z,14.68
2018-09-15T05:46:39.444Z,14.78
2018-09-15T05:49:08.148Z,14.81
2018-09-15T05:51:36.802Z,14.88
2018-09-15T05:54:05.455Z,14.99
2018-09-15T05:56:34.149Z,15.08
2018-09-15T05:59:02.820Z,15.09
2018-09-15T06:01:31.635Z,15.19
2018-09-15T06:04:00.335Z,15.29
2018-09-15T06:06:29.001Z,15.43
2018-09-15T06:08:57.668Z,15.51
2018-09-15T06:11:26.328Z,15.62
2018-09-15T06:13:55.026Z,15.70
2018-09-15T06:16:23.662Z,15.82
2018-09-15T06:18:52.369Z,15.92
2018-09-15T06:21:21.052Z,16.03
2018-09-15T06:23:49.690Z,16.12
2018-09-15T06:26:18.659Z,16.18
2018-09-15T06:28:47.416Z,16.32
2018-09-15T06:31:16.113Z,16.38
2018-09-15T06:33:44.787Z,16.40
2018-09-15T06:36:13.453Z,16.46
2018-09-15T06:38:42.222Z,16.55
2018-09-15T06:41:10.971Z,16.66
2018-09-15T06:43:39.698Z,16.73
2018-09-15T06:46:08.402Z,16.77
2018-09-15T06:48:37.062Z,16.83
2018-09-15T06:51:05.862Z,16.89
2018-09-15T06:53:34.506Z,17.03
2018-09-15T06:56:03.231Z,17.11
2018-09-15T06:58:31.981Z,17.19
2018-09-15T07:01:00.820Z,17.26
2018-09-15T07:03:29.510Z,17.35
2018-09-15T07:05:58.188Z,17.49
2018-09-15T07:08:26.885Z,17.52
2018-09-15T07:10:55.644Z,17.67
2018-09-15T07:13:24.323Z,17.70
2018-09-15T07:15:53.027Z,17.78
2018-09-15T07:18:21.727Z,17.79
2018-09-15T07:20:50.529Z,17.96
2018-09-15T07:23:19.207Z,18.03
2018-09-15T07:25:47.870Z,18.18
2018-09-15T07:28:16.556Z,18.30
2018-09-15T07:30:45.185Z,18.21
2018-09-15T07:33:13.855Z,18.41
2018-09-15T07:35:42.525Z,18.43
2018-09-15T07:38:11.227Z,18.53
2018-09-15T07:40:39.871Z,18.70
2018-09-15T07:43:08.540Z,18.71
2018-09-15T07:45:37.178Z,18.91
2018-09-15T07:48:05.947Z,19.06
2018-09-15T07:50:34.622Z,19.24
2018-09-15T07:53:03.324Z,19.36
2018-09-15T07:55:32.040Z,19.52
2018-09-15T07:58:00.965Z,19.66
2018-09-15T08:00:29.554Z,19.76
2018-09-15T08:02:58.218Z,19.93
2018-09-15T08:05:26.885Z,20.06
2018-09-15T08:07:55.531Z,20.16
2018-09-15T08:10:24.310Z,20.43
2018-09-15T08:12:53.035Z,20.55
2018-09-15T08:15:21.660Z,20.71
2018-09-15T08:17:50.336Z,20.69
2018-09-15T08:20:19.047Z,20.91
2018-09-15T08:22:47.670Z,21.03
2018-09-15T08:25:16.376Z,21.34
2018-09-15T08:27:45.110Z,21.48
2018-09-15T08:30:16.503Z,21.73
2018-09-15T08:32:45.222Z,21.92
2018-09-15T08:35:13.938Z,22.28
2018-09-15T08:37:42.684Z,22.48
2018-09-15T08:40:32.839Z,22.68
2018-09-15T08:43:01.611Z,22.83
2018-09-15T08:45:30.744Z,23.05
2018-09-15T08:47:59.444Z,22.96
2018-09-15T08:50:28.094Z,22.92
2018-09-15T08:52:56.767Z,22.93
2018-09-15T08:55:25.423Z,23.09
2018-09-15T08:57:54.060Z,23.25
2018-09-15T09:00:22.789Z,23.20
2018-09-15T09:02:51.455Z,23.25
2018-09-15T09:05:20.083Z,23.19
2018-09-15T09:07:48.727Z,23.13
2018-09-15T09:10:17.474Z,23.21
2018-09-15T13:50:04.619Z,27.90
2018-09-15T13:52:33.385Z,27.69
2018-09-15T13:55:02.121Z,27.45
2018-09-15T13:57:30.898Z,27.38
2018-09-15T13:59:59.595Z,27.38
2018-09-15T14:02:28.361Z,27.38
2018-09-15T14:04:57.136Z,27.70
2018-09-15T14:07:25.809Z,27.99
2018-09-15T14:09:54.507Z,28.22
2018-09-15T14:12:23.155Z,28.38
2018-09-15T14:14:52.003Z,28.43
2018-09-15T14:17:20.669Z,28.01
2018-09-15T14:19:49.395Z,27.70
2018-09-15T14:22:18.148Z,27.46
2018-09-15T14:24:46.847Z,27.29
2018-09-15T14:27:15.531Z,27.12
2018-09-15T14:29:44.192Z,27.06
2018-09-15T14:32:12.807Z,26.99
2018-09-15T14:34:41.528Z,26.66
2018-09-15T14:37:10.145Z,26.64
2018-09-15T14:39:38.857Z,26.53
2018-09-15T14:42:07.575Z,26.39
2018-09-15T14:44:36.261Z,26.37
2018-09-15T14:47:04.868Z,26.16
2018-09-15T14:49:33.590Z,26.23
2018-09-15T14:52:02.246Z,26.22
2018-09-15T14:54:30.932Z,26.33
2018-09-15T14:56:59.651Z,26.47
2018-09-15T14:59:28.358Z,26.43
2018-09-15T15:01:57.110Z,26.46
2018-09-15T15:04:25.786Z,26.54
2018-09-15T15:06:54.508Z,26.47
2018-09-15T15:09:23.206Z,26.44
2018-09-15T15:11:51.826Z,26.49
2018-09-15T15:14:20.527Z,26.33
2018-09-15T15:16:49.183Z,26.24
2018-09-15T15:19:17.859Z,26.21
2018-09-15T15:21:46.510Z,26.10
2018-09-15T15:24:15.255Z,26.15
2018-09-15T15:26:44.034Z,26.03
2018-09-15T15:29:12.706Z,25.74
2018-09-15T15:31:41.380Z,25.71
2018-09-15T15:34:10.067Z,25.56
2018-09-15T15:36:38.739Z,25.53
2018-09-15T15:39:08.683Z,25.42
2018-09-15T15:41:37.310Z,25.38
2018-09-15T15:44:06.023Z,25.26
2018-09-15T15:46:34.771Z,25.03
2018-09-15T15:49:04.167Z,24.88
2018-09-15T15:51:33.147Z,24.81
2018-09-15T15:54:01.842Z,24.66
2018-09-15T15:56:30.536Z,24.57
2018-09-15T15:58:59.168Z,24.66
2018-09-15T16:01:27.881Z,24.52
2018-09-15T16:03:56.534Z,24.46
2018-09-15T16:06:25.234Z,24.52
2018-09-15T16:08:53.961Z,24.40
2018-09-15T16:11:22.684Z,24.28
2018-09-15T16:13:51.633Z,24.21
2018-09-15T16:16:20.271Z,24.25
2018-09-15T16:18:49.040Z,24.25
2018-09-15T16:21:17.755Z,24.17
2018-09-15T16:23:46.518Z,24.12
2018-09-15T16:26:15.196Z,24.16
2018-09-15T16:28:43.913Z,24.00
2018-09-15T16:31:12.600Z,23.56
2018-09-15T16:33:41.328Z,23.41
2018-09-15T16:36:12.322Z,23.25
2018-09-15T16:38:41.039Z,22.96
2018-09-15T16:41:09.671Z,22.68
2018-09-15T16:43:38.669Z,22.57
2018-09-15T16:46:07.460Z,22.39
2018-09-15T16:48:36.227Z,22.17
2018-09-15T16:51:04.979Z,21.99
2018-09-15T16:53:33.830Z,21.83
2018-09-15T16:56:02.935Z,21.71
2018-09-15T16:58:31.586Z,21.50
2018-09-15T17:01:00.739Z,21.50
2018-09-15T17:03:29.514Z,21.44
2018-09-15T17:05:58.184Z,21.51
2018-09-15T17:08:27.207Z,21.23
2018-09-15T17:10:55.967Z,21.30
2018-09-15T17:13:25.227Z,21.43
2018-09-15T17:15:54.157Z,21.45
2018-09-15T17:18:23.676Z,21.40
2018-09-15T17:20:52.290Z,21.53
2018-09-15T17:23:21.039Z,21.60
2018-09-15T17:25:49.775Z,21.61
2018-09-15T17:28:18.496Z,21.46
2018-09-15T17:30:48.565Z,21.32
2018-09-15T17:33:17.426Z,21.41
2018-09-15T17:35:46.721Z,21.48
2018-09-15T17:38:16.306Z,21.48
2018-09-15T17:40:46.855Z,21.47
2018-09-15T17:43:17.193Z,21.51
2018-09-15T17:45:47.054Z,21.48
2018-09-15T17:48:16.222Z,21.50
2018-09-15T17:50:45.302Z,21.48
2018-09-15T17:53:14.684Z,21.48
2018-09-15T17:55:46.138Z,21.53
2018-09-15T17:58:16.149Z,21.54
2018-09-15T18:00:47.234Z,21.51
2018-09-15T18:03:16.711Z,21.51
2018-09-15T18:05:46.731Z,21.46
2018-09-15T18:08:16.743Z,21.38
2018-09-15T18:12:15.347Z,21.33
2018-09-15T18:14:44.402Z,21.26
2018-09-15T18:17:14.103Z,21.21
2018-09-15T18:19:42.768Z,21.16
2018-09-15T18:22:11.511Z,21.12
2018-09-15T18:24:41.016Z,21.06
2018-09-15T18:27:09.699Z,21.04
2018-09-15T18:29:39.329Z,21.00
2018-09-15T18:32:08.952Z,21.00
2018-09-15T18:34:37.809Z,20.90
2018-09-15T18:37:07.506Z,20.84
2018-09-15T18:39:36.134Z,20.82
2018-09-15T18:42:04.865Z,20.74
2018-09-15T18:44:34.088Z,20.74
2018-09-15T18:47:02.789Z,20.68
2018-09-15T18:49:31.571Z,20.74
2018-09-15T18:52:01.613Z,20.74
2018-09-15T18:54:30.533Z,20.72
2018-09-15T18:57:00.672Z,20.64
2018-09-15T18:59:29.391Z,20.73
2018-09-15T19:01:58.692Z,20.70
2018-09-15T19:04:28.996Z,20.72
2018-09-15T19:06:58.934Z,20.67
2018-09-15T19:09:27.757Z,20.63
2018-09-15T19:11:58.945Z,20.58
2018-09-15T19:14:27.635Z,20.55
2018-09-15T19:16:56.721Z,20.61
2018-09-15T19:19:25.723Z,20.55
2018-09-15T19:21:54.471Z,20.54
2018-09-15T19:24:23.140Z,20.51
2018-09-15T19:26:52.133Z,20.47
2018-09-15T19:29:20.832Z,20.44
2018-09-15T19:31:49.854Z,20.42
2018-09-15T19:34:18.953Z,20.36
2018-09-15T19:36:47.842Z,20.38
2018-09-15T19:39:17.427Z,20.36
2018-09-15T19:41:46.109Z,20.36
2018-09-15T19:44:14.749Z,20.35
2018-09-15T19:46:43.431Z,20.31
2018-09-15T19:49:12.126Z,20.27
2018-09-15T19:51:40.822Z,20.22
2018-09-15T19:54:09.515Z,20.23
2018-09-15T19:56:38.189Z,20.21
2018-09-15T19:59:08.048Z,20.14
2018-09-15T20:01:36.707Z,20.19
2018-09-15T20:04:05.403Z,20.10
2018-09-15T20:06:34.174Z,20.02
2018-09-15T20:09:02.962Z,20.10
2018-09-15T20:11:31.651Z,20.11
2018-09-15T20:14:00.443Z,20.04
2018-09-15T20:16:28.304Z,20.02
2018-09-15T20:18:55.775Z,20.00
2018-09-15T20:21:23.095Z,20.03
2018-09-15T20:23:51.806Z,19.91
2018-09-15T20:26:20.513Z,19.91
2018-09-15T20:28:49.148Z,19.72
2018-09-15T20:31:18.076Z,19.79
2018-09-15T20:33:47.464Z,19.77
2018-09-15T20:36:16.229Z,19.73
2018-09-15T20:38:45.041Z,19.72
2018-09-15T20:41:13.754Z,19.67
2018-09-15T20:43:42.443Z,19.69
2018-09-15T20:46:11.117Z,19.62
2018-09-15T20:48:39.800Z,19.62
2018-09-15T20:51:08.444Z,19.57
2018-09-15T20:53:37.138Z,19.56
2018-09-15T20:56:05.888Z,19.53
2018-09-15T20:58:34.624Z,19.46
2018-09-15T21:01:03.260Z,19.42
2018-09-15T21:03:33.424Z,19.41
2018-09-15T21:06:02.416Z,19.44
2018-09-15T21:08:31.304Z,19.35
2018-09-15T21:11:00.324Z,19.44
2018-09-15T21:13:29.340Z,19.43
2018-09-15T21:15:58.143Z,19.46
2018-09-15T21:18:26.848Z,19.37
2018-09-15T21:20:55.531Z,19.44
2018-09-15T21:23:24.234Z,19.48
2018-09-15T21:25:52.915Z,19.51
2018-09-15T21:28:21.551Z,19.41
2018-09-15T21:30:50.192Z,19.47
2018-09-15T21:33:18.847Z,19.38
2018-09-15T21:35:47.546Z,19.38
2018-09-15T21:38:16.241Z,19.28
2018-09-15T21:40:44.888Z,19.33
2018-09-15T21:43:13.545Z,19.31
2018-09-15T21:45:42.199Z,19.35
2018-09-15T21:48:10.835Z,19.37
2018-09-15T21:50:39.583Z,19.28
2018-09-15T21:53:08.258Z,19.30
2018-09-15T21:55:36.915Z,19.27
2018-09-15T21:58:05.576Z,19.27
2018-09-15T22:00:34.644Z,19.25
2018-09-15T22:03:03.892Z,19.22
2018-09-15T22:05:34.189Z,19.20
2018-09-15T22:08:03.061Z,19.14
2018-09-15T22:10:32.262Z,19.09
2018-09-15T22:13:00.954Z,19.07
2018-09-15T22:15:29.642Z,19.07
2018-09-15T22:17:59.284Z,19.01
2018-09-15T22:20:28.563Z,19.01
2018-09-15T22:22:57.329Z,19.00
2018-09-15T22:25:25.991Z,19.00
2018-09-15T22:29:23.967Z,18.94
2018-09-15T22:31:52.750Z,18.88
2018-09-15T22:34:21.413Z,18.84
2018-09-15T22:36:50.231Z,18.80
2018-09-15T22:39:18.887Z,18.74
2018-09-15T22:41:47.580Z,18.76
2018-09-15T22:44:16.336Z,18.74
2018-09-15T22:46:45.101Z,18.72
2018-09-15T22:49:13.791Z,18.71
2018-09-15T22:51:42.433Z,18.70
2018-09-15T22:54:11.346Z,18.70
2018-09-15T22:56:40.185Z,18.67
2018-09-15T22:59:09.001Z,18.71
2018-09-15T23:01:37.835Z,18.74
2018-09-15T23:04:08.864Z,18.77
2018-09-15T23:06:37.691Z,18.79
2018-09-15T23:09:08.485Z,18.79
2018-09-15T23:11:37.246Z,18.76
2018-09-15T23:14:05.946Z,18.78
2018-09-15T23:16:34.631Z,18.75
2018-09-15T23:19:03.320Z,18.71
2018-09-15T23:21:32.401Z,18.71
2018-09-15T23:24:01.156Z,18.66
2018-09-15T23:26:29.815Z,18.62
2018-09-15T23:28:58.496Z,18.64
2018-09-15T23:31:27.140Z,18.64
2018-09-15T23:33:55.817Z,18.61
2018-09-15T23:36:24.502Z,18.61
2018-09-15T23:38:53.248Z,18.66
2018-09-15T23:41:21.945Z,18.63
2018-09-15T23:43:51.823Z,18.61
2018-09-15T23:46:20.554Z,18.67
2018-09-15T23:48:49.228Z,18.64
2018-09-15T23:51:17.955Z,18.58
2018-09-15T23:53:46.597Z,18.54
2018-09-15T23:56:15.248Z,18.53
2018-09-15T23:58:43.963Z,18.50
